createdAt,value
2023-03-22T00:00:25.851Z,57.44
2023-03-22T00:01:26.134Z,57.54
2023-03-22T00:02:25.910Z,57.24
2023-03-22T00:03:25.982Z,57.44
2023-03-22T00:04:26.073Z,58.26
2023-03-22T00:05:25.946Z,58.36
2023-03-22T00:06:25.954Z,57.95
2023-03-22T00:07:25.960Z,58.15
2023-03-22T00:08:25.988Z,58.36
2023-03-22T00:09:26.033Z,58.59
2023-03-22T00:10:26.002Z,58.18
2023-03-22T00:11:26.049Z,58.15
2023-03-22T00:12:26.048Z,57.85
2023-03-22T00:13:26.102Z,58.39
2023-03-22T00:14:26.094Z,57.87
2023-03-22T00:15:26.108Z,57.34
2023-03-22T00:16:26.157Z,57.78
2023-03-22T00:17:26.155Z,57.78
2023-03-22T00:18:26.163Z,58.08
2023-03-22T00:19:26.179Z,57.44
2023-03-22T00:20:26.178Z,57.26
2023-03-22T00:21:26.207Z,57.67
2023-03-22T00:22:26.263Z,58.08
2023-03-22T00:23:26.231Z,58.08
2023-03-22T00:24:26.295Z,57.19
2023-03-22T00:25:26.501Z,57.78
2023-03-22T00:26:26.298Z,58.08
2023-03-22T00:27:26.968Z,57.87
2023-03-22T00:28:26.327Z,58.08
2023-03-22T00:29:26.368Z,57.44
2023-03-22T00:30:26.366Z,57.14
2023-03-22T00:31:26.696Z,56.83
2023-03-22T00:32:27.952Z,57.44
2023-03-22T00:33:26.422Z,57.65
2023-03-22T00:34:26.474Z,57.54
2023-03-22T00:35:26.540Z,57.75
2023-03-22T00:36:26.469Z,56.32
2023-03-22T00:37:26.497Z,56.63
2023-03-22T00:38:39.685Z,56.52
2023-03-22T00:39:26.571Z,57.44
2023-03-22T00:40:26.779Z,56.83
2023-03-22T00:41:26.826Z,57.65
2023-03-22T00:42:26.590Z,56.42
2023-03-22T00:43:27.369Z,56.22
2023-03-22T00:44:26.628Z,56.32
2023-03-22T00:45:26.658Z,56.22
2023-03-22T00:46:26.678Z,56.42
2023-03-22T00:47:26.707Z,55.91
2023-03-22T00:48:26.936Z,56.22
2023-03-22T00:49:26.723Z,55.91
2023-03-22T00:50:26.975Z,56.12
2023-03-22T00:51:26.751Z,55.91
2023-03-22T00:52:27.026Z,56.83
2023-03-22T00:53:26.812Z,55.99
2023-03-22T00:54:26.787Z,56.29
2023-03-22T00:55:26.803Z,57.21
2023-03-22T00:56:26.823Z,56.70
2023-03-22T00:57:26.852Z,56.81
2023-03-22T00:58:27.136Z,55.79
2023-03-22T00:59:26.892Z,55.89
2023-03-22T01:00:26.910Z,55.61
2023-03-22T01:01:26.943Z,56.15
2023-03-22T01:02:26.931Z,55.91
2023-03-22T01:03:27.038Z,56.73
2023-03-22T01:04:26.996Z,56.32
2023-03-22T01:05:26.991Z,56.20
2023-03-22T01:06:27.011Z,55.99
2023-03-22T01:07:27.044Z,55.81
2023-03-22T01:08:27.234Z,55.81
2023-03-22T01:09:27.097Z,56.12
2023-03-22T01:10:27.086Z,55.68
2023-03-22T01:11:27.100Z,55.38
2023-03-22T01:12:27.111Z,55.38
2023-03-22T01:13:27.285Z,55.18
2023-03-22T01:14:27.165Z,55.61
2023-03-22T01:15:27.214Z,55.68
2023-03-22T01:16:27.274Z,55.38
2023-03-22T01:17:27.209Z,54.97
2023-03-22T01:18:27.222Z,55.38
2023-03-22T01:19:27.263Z,55.61
2023-03-22T01:20:27.288Z,56.52
2023-03-22T01:21:27.305Z,55.61
2023-03-22T01:22:27.307Z,55.61
2023-03-22T01:23:27.322Z,55.61
2023-03-22T01:24:27.365Z,55.68
2023-03-22T01:25:27.393Z,55.41
2023-03-22T01:26:27.387Z,55.91
2023-03-22T01:27:27.403Z,56.12
2023-03-22T01:28:27.679Z,55.91
2023-03-22T01:29:27.446Z,55.71
2023-03-22T01:30:27.539Z,55.91
2023-03-22T01:31:27.469Z,55.51
2023-03-22T01:32:27.516Z,55.51
2023-03-22T01:33:27.524Z,55.51
2023-03-22T01:34:27.511Z,56.22
2023-03-22T01:35:27.633Z,55.61
2023-03-22T01:36:27.605Z,56.35
2023-03-22T01:37:27.618Z,56.02
2023-03-22T01:38:27.621Z,55.38
2023-03-22T01:39:27.628Z,55.48
2023-03-22T01:40:27.639Z,55.61
2023-03-22T01:41:27.678Z,55.79
2023-03-22T01:42:27.669Z,55.48
2023-03-22T01:43:27.700Z,55.51
2023-03-22T01:44:27.705Z,55.81
2023-03-22T01:45:27.727Z,55.91
2023-03-22T01:46:27.883Z,55.81
2023-03-22T01:47:27.775Z,55.38
2023-03-22T01:48:27.793Z,55.28
2023-03-22T01:49:27.827Z,55.28
2023-03-22T01:50:27.825Z,55.48
2023-03-22T01:51:27.852Z,55.18
2023-03-22T01:52:27.865Z,55.38
2023-03-22T01:53:28.100Z,54.97
2023-03-22T01:54:27.900Z,55.48
2023-03-22T01:55:27.926Z,56.09
2023-03-22T01:56:27.962Z,55.55
2023-03-22T01:57:27.963Z,56.07
2023-03-22T01:58:33.501Z,55.18
2023-03-22T01:59:28.252Z,55.58
2023-03-22T02:00:28.005Z,55.28
2023-03-22T02:01:28.028Z,55.48
2023-03-22T02:02:28.209Z,55.07
2023-03-22T02:03:28.067Z,55.68
2023-03-22T02:04:29.144Z,55.68
2023-03-22T02:05:29.148Z,55.38
2023-03-22T02:06:29.142Z,55.46
2023-03-22T02:07:29.153Z,55.79
2023-03-22T02:08:28.157Z,55.79
2023-03-22T02:09:28.162Z,56.70
2023-03-22T02:10:28.191Z,56.29
2023-03-22T02:11:29.251Z,56.09
2023-03-22T02:12:29.267Z,56.40
2023-03-22T02:13:29.262Z,55.79
2023-03-22T02:14:28.991Z,55.99
2023-03-22T02:15:28.787Z,56.60
2023-03-22T02:16:28.296Z,56.70
2023-03-22T02:17:28.318Z,56.29
2023-03-22T02:18:28.496Z,55.99
2023-03-22T02:19:28.404Z,55.89
2023-03-22T02:20:28.385Z,56.29
2023-03-22T02:21:28.387Z,55.79
2023-03-22T02:22:28.417Z,56.20
2023-03-22T02:23:28.437Z,55.81
2023-03-22T02:24:28.685Z,56.52
2023-03-22T02:25:28.475Z,56.12
2023-03-22T02:26:28.507Z,55.91
2023-03-22T02:27:28.509Z,56.15
2023-03-22T02:28:28.552Z,56.24
2023-03-22T02:29:28.551Z,56.24
2023-03-22T02:30:28.782Z,57.06
2023-03-22T02:31:28.622Z,56.35
2023-03-22T02:32:28.601Z,56.83
2023-03-22T02:33:28.782Z,56.24
2023-03-22T02:34:28.643Z,56.88
2023-03-22T02:35:28.706Z,57.39
2023-03-22T02:36:28.664Z,56.96
2023-03-22T02:37:28.686Z,57.06
2023-03-22T02:38:28.865Z,56.85
2023-03-22T02:39:28.715Z,56.76
2023-03-22T02:40:28.730Z,57.19
2023-03-22T02:41:28.764Z,56.88
2023-03-22T02:42:30.431Z,57.09
2023-03-22T02:43:28.972Z,56.88
2023-03-22T02:44:28.797Z,57.09
2023-03-22T02:45:28.809Z,57.80
2023-03-22T02:46:28.875Z,57.29
2023-03-22T02:47:28.845Z,57.09
2023-03-22T02:48:29.115Z,57.50
2023-03-22T02:49:28.894Z,57.09
2023-03-22T02:50:28.902Z,57.50
2023-03-22T02:51:28.931Z,57.29
2023-03-22T02:52:28.942Z,57.29
2023-03-22T02:53:29.201Z,57.90
2023-03-22T02:54:29.225Z,57.60
2023-03-22T02:55:29.002Z,57.70
2023-03-22T02:56:29.019Z,57.52
2023-03-22T02:57:29.030Z,57.52
2023-03-22T02:58:29.079Z,58.34
2023-03-22T02:59:29.072Z,57.83
2023-03-22T03:00:29.156Z,57.83
2023-03-22T03:01:29.172Z,58.14
2023-03-22T03:02:29.176Z,58.47
2023-03-22T03:03:29.327Z,58.87
2023-03-22T03:04:29.173Z,59.08
2023-03-22T03:05:29.205Z,59.28
2023-03-22T03:06:29.244Z,59.59
2023-03-22T03:07:29.248Z,59.59
2023-03-22T03:08:29.473Z,60.30
2023-03-22T03:09:29.256Z,59.59
2023-03-22T03:10:29.279Z,58.91
2023-03-22T03:11:30.738Z,59.00
2023-03-22T03:12:29.336Z,59.21
2023-03-22T03:13:29.575Z,59.39
2023-03-22T03:14:29.357Z,59.92
2023-03-22T03:15:29.413Z,59.62
2023-03-22T03:16:29.543Z,59.00
2023-03-22T03:17:29.555Z,59.18
2023-03-22T03:18:29.470Z,59.89
2023-03-22T03:19:29.445Z,59.69
2023-03-22T03:20:29.464Z,58.67
2023-03-22T03:21:29.472Z,58.16
2023-03-22T03:22:29.504Z,58.47
2023-03-22T03:23:29.551Z,58.91
2023-03-22T03:24:29.787Z,58.91
2023-03-22T03:25:29.903Z,59.34
2023-03-22T03:26:29.568Z,59.14
2023-03-22T03:27:29.588Z,59.14
2023-03-22T03:28:29.613Z,59.75
2023-03-22T03:29:29.651Z,59.44
2023-03-22T03:30:29.805Z,59.34
2023-03-22T03:31:29.666Z,59.67
2023-03-22T03:32:29.685Z,59.98
2023-03-22T03:33:29.685Z,60.69
2023-03-22T03:34:29.723Z,60.31
2023-03-22T03:35:29.775Z,60.83
2023-03-22T03:36:30.674Z,61.13
2023-03-22T03:37:29.770Z,61.00
2023-03-22T03:38:29.786Z,60.60
2023-03-22T03:39:29.800Z,60.42
2023-03-22T03:40:30.076Z,60.42
2023-03-22T03:41:29.963Z,60.11
2023-03-22T03:42:29.851Z,61.34
2023-03-22T03:43:29.889Z,61.34
2023-03-22T03:44:29.883Z,60.72
2023-03-22T03:45:29.957Z,61.06
2023-03-22T03:46:29.935Z,60.85
2023-03-22T03:47:29.949Z,61.24
2023-03-22T03:48:29.972Z,60.65
2023-03-22T03:49:29.974Z,60.93
2023-03-22T03:50:30.019Z,61.24
2023-03-22T03:51:30.033Z,60.96
2023-03-22T03:52:30.060Z,60.75
2023-03-22T03:53:30.056Z,61.67
2023-03-22T03:54:30.105Z,62.18
2023-03-22T03:55:30.672Z,61.06
2023-03-22T03:56:30.118Z,61.50
2023-03-22T03:57:30.132Z,62.11
2023-03-22T03:58:30.145Z,62.32
2023-03-22T03:59:30.184Z,61.88
2023-03-22T04:00:30.211Z,62.29
2023-03-22T04:01:30.439Z,61.88
2023-03-22T04:02:30.306Z,61.36
2023-03-22T04:03:30.248Z,61.36
2023-03-22T04:04:30.366Z,60.42
2023-03-22T04:05:30.309Z,60.52
2023-03-22T04:06:30.306Z,60.35
2023-03-22T04:07:30.309Z,60.55
2023-03-22T04:08:30.347Z,61.36
2023-03-22T04:09:30.350Z,60.65
2023-03-22T04:10:30.408Z,60.75
2023-03-22T04:11:30.392Z,60.65
2023-03-22T04:12:30.545Z,60.85
2023-03-22T04:13:30.411Z,61.36
2023-03-22T04:14:30.450Z,60.35
2023-03-22T04:15:30.492Z,60.44
2023-03-22T04:16:30.511Z,61.16
2023-03-22T04:17:31.200Z,60.96
2023-03-22T04:18:30.525Z,61.16
2023-03-22T04:19:30.525Z,61.16
2023-03-22T04:20:30.574Z,61.16
2023-03-22T04:21:30.571Z,60.85
2023-03-22T04:22:30.597Z,60.55
2023-03-22T04:23:30.831Z,60.58
2023-03-22T04:24:30.627Z,60.58
2023-03-22T04:25:30.645Z,61.19
2023-03-22T04:26:30.892Z,61.09
2023-03-22T04:27:30.681Z,61.80
2023-03-22T04:28:30.731Z,62.24
2023-03-22T04:29:30.699Z,61.22
2023-03-22T04:30:31.359Z,61.22
2023-03-22T04:31:30.795Z,61.83
2023-03-22T04:32:30.960Z,61.73
2023-03-22T04:33:30.931Z,62.14
2023-03-22T04:34:30.791Z,61.93
2023-03-22T04:35:30.824Z,61.63
2023-03-22T04:36:30.831Z,61.83
2023-03-22T04:37:30.854Z,62.55
2023-03-22T04:38:30.886Z,61.63
2023-03-22T04:39:30.873Z,62.45
2023-03-22T04:40:31.132Z,62.14
2023-03-22T04:41:30.915Z,62.14
2023-03-22T04:42:30.933Z,62.24
2023-03-22T04:43:30.970Z,61.83
2023-03-22T04:44:30.968Z,62.24
2023-03-22T04:45:30.981Z,62.24
2023-03-22T04:46:31.044Z,61.73
2023-03-22T04:47:31.027Z,61.52
2023-03-22T04:48:31.313Z,61.52
2023-03-22T04:49:31.062Z,61.73
2023-03-22T04:50:31.080Z,61.43
2023-03-22T04:51:31.102Z,61.55
2023-03-22T04:52:31.126Z,61.76
2023-03-22T04:53:31.370Z,62.78
2023-03-22T04:54:31.169Z,62.45
2023-03-22T04:55:31.183Z,61.63
2023-03-22T04:56:31.196Z,61.83
2023-03-22T04:57:31.211Z,62.24
2023-03-22T04:58:31.237Z,62.37
2023-03-22T04:59:31.242Z,62.07
2023-03-22T05:00:31.295Z,62.45
2023-03-22T05:01:31.303Z,62.17
2023-03-22T05:02:31.342Z,62.24
2023-03-22T05:03:31.337Z,62.96
2023-03-22T05:04:31.330Z,62.78
2023-03-22T05:05:31.366Z,62.48
2023-03-22T05:06:31.383Z,62.68
2023-03-22T05:07:31.620Z,62.88
2023-03-22T05:08:31.659Z,62.27
2023-03-22T05:09:31.426Z,62.27
2023-03-22T05:10:31.456Z,62.48
2023-03-22T05:11:31.693Z,62.37
2023-03-22T05:12:31.471Z,62.78
2023-03-22T05:13:31.509Z,62.78
2023-03-22T05:14:31.544Z,62.48
2023-03-22T05:15:31.531Z,62.48
2023-03-22T05:16:31.801Z,62.37
2023-03-22T05:17:31.570Z,62.58
2023-03-22T05:18:31.842Z,62.48
2023-03-22T05:19:31.609Z,62.27
2023-03-22T05:20:31.635Z,62.24
2023-03-22T05:21:31.650Z,62.24
2023-03-22T05:22:31.659Z,62.07
2023-03-22T05:23:31.716Z,62.48
2023-03-22T05:24:31.710Z,62.58
2023-03-22T05:25:31.741Z,62.37
2023-03-22T05:26:31.857Z,61.86
2023-03-22T05:27:31.916Z,61.66
2023-03-22T05:28:31.772Z,62.07
2023-03-22T05:29:31.808Z,61.73
2023-03-22T05:30:31.833Z,61.35
2023-03-22T05:31:32.107Z,61.63
2023-03-22T05:32:31.843Z,62.65
2023-03-22T05:33:31.876Z,62.27
2023-03-22T05:34:31.886Z,62.55
2023-03-22T05:35:31.949Z,62.04
2023-03-22T05:36:31.930Z,62.04
2023-03-22T05:37:31.937Z,61.96
2023-03-22T05:38:31.950Z,61.86
2023-03-22T05:39:31.990Z,62.24
2023-03-22T05:40:32.049Z,61.76
2023-03-22T05:41:32.929Z,62.27
2023-03-22T05:42:32.243Z,62.14
2023-03-22T05:43:32.020Z,61.93
2023-03-22T05:44:32.063Z,62.07
2023-03-22T05:45:32.067Z,62.07
2023-03-22T05:46:32.253Z,62.37
2023-03-22T05:47:32.096Z,62.58
2023-03-22T05:48:32.125Z,63.20
2023-03-22T05:49:32.163Z,63.09
2023-03-22T05:50:32.175Z,62.78
2023-03-22T05:51:32.168Z,62.85
2023-03-22T05:52:32.169Z,62.96
2023-03-22T05:53:32.191Z,62.96
2023-03-22T05:54:32.462Z,63.06
2023-03-22T05:55:32.312Z,63.26
2023-03-22T05:56:32.241Z,62.76
2023-03-22T05:57:32.271Z,61.63
2023-03-22T05:58:32.297Z,61.22
2023-03-22T05:59:32.278Z,61.40
2023-03-22T06:00:32.317Z,61.80
2023-03-22T06:01:32.390Z,61.50
2023-03-22T06:02:32.345Z,61.16
2023-03-22T06:03:32.613Z,60.65
2023-03-22T06:04:32.376Z,60.85
2023-03-22T06:05:32.383Z,60.03
2023-03-22T06:06:32.581Z,60.75
2023-03-22T06:07:32.427Z,60.58
2023-03-22T06:08:32.432Z,60.47
2023-03-22T06:09:32.683Z,60.37
2023-03-22T06:10:32.462Z,59.73
2023-03-22T06:11:32.478Z,59.96
2023-03-22T06:12:32.512Z,59.53
2023-03-22T06:13:32.504Z,59.63
2023-03-22T06:14:32.519Z,59.60
2023-03-22T06:15:32.556Z,59.30
2023-03-22T06:16:32.670Z,58.68
2023-03-22T06:17:32.566Z,58.65
2023-03-22T06:18:32.617Z,58.27
2023-03-22T06:19:32.596Z,58.04
2023-03-22T06:20:32.621Z,57.56
2023-03-22T06:21:32.865Z,58.27
2023-03-22T06:22:32.680Z,57.73
2023-03-22T06:23:32.664Z,58.68
2023-03-22T06:24:32.686Z,58.14
2023-03-22T06:25:32.675Z,58.27
2023-03-22T06:26:32.705Z,57.84
2023-03-22T06:27:32.742Z,58.04
2023-03-22T06:28:32.753Z,57.93
2023-03-22T06:29:32.745Z,57.60
2023-03-22T06:30:32.812Z,57.63
2023-03-22T06:31:32.783Z,57.60
2023-03-22T06:32:32.805Z,56.99
2023-03-22T06:33:32.818Z,56.56
2023-03-22T06:34:32.838Z,57.53
2023-03-22T06:35:32.949Z,58.27
2023-03-22T06:36:32.868Z,57.63
2023-03-22T06:37:32.864Z,57.50
2023-03-22T06:38:32.898Z,56.86
2023-03-22T06:39:32.920Z,56.15
2023-03-22T06:40:32.912Z,56.86
2023-03-22T06:41:32.926Z,56.96
2023-03-22T06:42:33.288Z,56.76
2023-03-22T06:43:33.011Z,55.94
2023-03-22T06:44:32.978Z,56.25
2023-03-22T06:45:32.984Z,56.15
2023-03-22T06:46:32.992Z,56.66
2023-03-22T06:47:33.120Z,56.58
2023-03-22T06:48:33.030Z,56.99
2023-03-22T06:49:33.079Z,57.40
2023-03-22T06:50:33.061Z,56.56
2023-03-22T06:51:33.097Z,56.12
2023-03-22T06:52:33.153Z,56.12
2023-03-22T06:53:33.126Z,56.02
2023-03-22T06:54:33.170Z,56.20
2023-03-22T06:55:33.140Z,55.58
2023-03-22T06:56:33.253Z,55.69
2023-03-22T06:57:33.407Z,55.79
2023-03-22T06:58:33.192Z,55.89
2023-03-22T06:59:33.232Z,56.10
2023-03-22T07:00:33.254Z,55.89
2023-03-22T07:01:33.320Z,55.46
2023-03-22T07:02:33.254Z,55.26
2023-03-22T07:03:33.643Z,55.15
2023-03-22T07:04:33.375Z,55.26
2023-03-22T07:05:34.545Z,55.35
2023-03-22T07:08:46.360Z,54.94
2023-03-22T07:09:46.594Z,54.64
2023-03-22T07:10:46.659Z,56.10
2023-03-22T07:11:46.635Z,55.46
2023-03-22T07:12:53.073Z,54.61
2023-03-22T07:14:01.523Z,54.00
2023-03-22T07:14:50.091Z,53.92
2023-03-22T07:15:48.191Z,54.54
2023-03-22T07:17:14.684Z,53.50
2023-03-22T07:17:46.734Z,53.39
2023-03-22T07:18:50.393Z,52.83
2023-03-22T07:19:46.758Z,52.53
2023-03-22T07:20:46.751Z,52.63
2023-03-22T07:21:48.019Z,52.22
2023-03-22T07:22:46.787Z,52.20
2023-03-22T07:23:46.831Z,52.20
2023-03-22T07:24:56.017Z,52.20
2023-03-22T07:25:46.867Z,52.63
2023-03-22T07:26:46.981Z,52.00
2023-03-22T07:27:46.888Z,51.79
2023-03-22T07:28:47.622Z,51.48
2023-03-22T07:29:52.775Z,51.79
2023-03-22T07:30:46.895Z,51.79
2023-03-22T07:31:47.050Z,50.65
2023-03-22T07:32:50.661Z,51.18
2023-03-22T07:33:46.949Z,51.26
2023-03-22T07:34:46.941Z,50.73
2023-03-22T07:35:47.030Z,50.14
2023-03-22T07:36:51.033Z,50.22
2023-03-22T07:37:47.067Z,50.42
2023-03-22T07:38:47.005Z,49.89
2023-03-22T07:39:47.407Z,49.81
2023-03-22T07:40:47.369Z,49.91
2023-03-22T07:41:47.359Z,50.29
2023-03-22T07:42:47.183Z,49.66
2023-03-22T07:43:55.225Z,48.95
2023-03-22T07:44:47.251Z,49.38
2023-03-22T07:45:47.437Z,49.40
2023-03-22T07:46:47.222Z,50.24
2023-03-22T07:47:47.186Z,50.12
2023-03-22T07:48:52.790Z,49.71
2023-03-22T07:49:47.212Z,49.48
2023-03-22T07:50:47.205Z,49.03
2023-03-22T07:51:47.513Z,48.63
2023-03-22T07:52:48.122Z,48.42
2023-03-22T07:53:47.654Z,49.16
2023-03-22T07:54:48.490Z,49.13
2023-03-22T07:55:47.509Z,48.55
2023-03-22T07:56:47.307Z,48.65
2023-03-22T07:57:47.316Z,48.67
2023-03-22T07:58:47.348Z,49.08
2023-03-22T07:59:47.346Z,49.16
2023-03-22T08:00:48.058Z,48.52
2023-03-22T08:01:47.419Z,48.42
2023-03-22T08:02:47.470Z,48.32
2023-03-22T08:03:47.727Z,48.22
2023-03-22T08:04:51.055Z,48.10
2023-03-22T08:05:47.434Z,48.30
2023-03-22T08:06:47.445Z,49.33
2023-03-22T08:07:47.464Z,49.13
2023-03-22T08:08:48.319Z,49.05
2023-03-22T08:09:48.241Z,48.71
2023-03-22T08:10:47.479Z,47.89
2023-03-22T08:11:47.504Z,47.97
2023-03-22T08:12:47.540Z,48.30
2023-03-22T08:13:47.541Z,48.40
2023-03-22T08:14:50.791Z,47.97
2023-03-22T08:15:47.580Z,48.07
2023-03-22T08:16:47.655Z,47.87
2023-03-22T08:17:47.601Z,47.64
2023-03-22T08:18:47.770Z,47.14
2023-03-22T08:19:47.629Z,47.44
2023-03-22T08:20:53.366Z,47.14
2023-03-22T08:21:47.811Z,47.24
2023-03-22T08:22:47.710Z,46.81
2023-03-22T08:23:48.877Z,47.54
2023-03-22T08:24:47.707Z,47.11
2023-03-22T08:25:47.720Z,46.81
2023-03-22T08:26:49.551Z,46.61
2023-03-22T08:27:47.747Z,46.69
2023-03-22T08:28:48.013Z,46.06
2023-03-22T08:29:47.782Z,46.26
2023-03-22T08:30:49.202Z,46.06
2023-03-22T08:31:49.251Z,46.26
2023-03-22T08:32:47.820Z,46.18
2023-03-22T08:33:47.840Z,45.96
2023-03-22T08:34:47.855Z,45.63
2023-03-22T08:35:47.909Z,45.75
2023-03-22T08:36:49.178Z,45.35
2023-03-22T08:37:47.893Z,45.98
2023-03-22T08:38:47.920Z,46.20
2023-03-22T08:39:47.928Z,46.18
2023-03-22T08:40:47.956Z,46.38
2023-03-22T08:41:48.212Z,45.75
2023-03-22T08:42:58.301Z,46.06
2023-03-22T08:43:48.017Z,45.75
2023-03-22T08:44:48.006Z,46.16
2023-03-22T08:45:48.109Z,46.36
2023-03-22T08:46:48.119Z,46.42
2023-03-22T08:47:51.132Z,45.81
2023-03-22T08:48:48.198Z,46.16
2023-03-22T08:49:48.078Z,46.87
2023-03-22T08:50:51.317Z,46.24
2023-03-22T08:51:48.105Z,46.67
2023-03-22T08:52:48.138Z,46.48
2023-03-22T08:53:48.384Z,46.87
2023-03-22T08:54:48.164Z,46.89
2023-03-22T08:55:48.173Z,46.75
2023-03-22T08:56:48.401Z,46.12
2023-03-22T08:57:48.212Z,45.83
2023-03-22T08:58:53.064Z,45.20
2023-03-22T08:59:48.237Z,44.68
2023-03-22T09:00:49.802Z,44.78
2023-03-22T09:01:48.435Z,44.27
2023-03-22T09:02:48.271Z,44.58
2023-03-22T09:03:48.315Z,44.48
2023-03-22T09:04:48.386Z,44.48
2023-03-22T09:05:48.348Z,44.15
2023-03-22T09:06:48.335Z,43.87
2023-03-22T09:07:48.413Z,44.27
2023-03-22T09:08:48.435Z,43.77
2023-03-22T09:09:49.653Z,44.21
2023-03-22T09:10:48.404Z,44.92
2023-03-22T09:11:48.428Z,44.49
2023-03-22T09:12:48.440Z,44.29
2023-03-22T09:13:48.720Z,44.29
2023-03-22T09:14:48.485Z,44.32
2023-03-22T09:15:48.532Z,44.42
2023-03-22T09:16:48.723Z,44.82
2023-03-22T09:17:48.525Z,44.80
2023-03-22T09:18:48.524Z,44.66
2023-03-22T09:19:48.663Z,43.85
2023-03-22T09:20:48.566Z,43.63
2023-03-22T09:21:48.568Z,43.23
2023-03-22T09:22:49.817Z,43.32
2023-03-22T09:23:48.616Z,43.55
2023-03-22T09:24:48.621Z,43.44
2023-03-22T09:25:48.680Z,43.63
2023-03-22T09:26:48.645Z,43.24
2023-03-22T09:27:48.682Z,42.84
2023-03-22T09:28:48.752Z,43.55
2023-03-22T09:29:48.725Z,43.24
2023-03-22T09:30:48.760Z,43.32
2023-03-22T09:31:51.149Z,42.70
2023-03-22T09:32:48.874Z,42.47
2023-03-22T09:33:48.779Z,41.87
2023-03-22T09:34:48.907Z,42.27
2023-03-22T09:35:48.812Z,42.47
2023-03-22T09:36:48.888Z,42.60
2023-03-22T09:37:51.286Z,42.38
2023-03-22T09:38:49.571Z,42.47
2023-03-22T09:39:49.577Z,41.87
2023-03-22T09:40:49.576Z,42.38
2023-03-22T09:41:49.567Z,41.75
2023-03-22T09:42:48.921Z,41.73
2023-03-22T09:43:49.010Z,41.83
2023-03-22T09:44:48.945Z,41.73
2023-03-22T09:45:49.040Z,41.33
2023-03-22T09:46:49.697Z,41.35
2023-03-22T09:47:49.799Z,41.97
2023-03-22T09:48:49.716Z,42.25
2023-03-22T09:49:53.659Z,41.93
2023-03-22T09:50:49.041Z,41.73
2023-03-22T09:51:49.148Z,42.05
2023-03-22T09:52:49.069Z,42.15
2023-03-22T09:53:49.088Z,42.13
2023-03-22T09:54:51.519Z,41.73
2023-03-22T09:55:49.106Z,41.53
2023-03-22T09:56:51.764Z,41.31
2023-03-22T09:57:49.156Z,41.53
2023-03-22T09:58:49.333Z,41.95
2023-03-22T09:59:49.197Z,41.35
2023-03-22T10:00:49.328Z,41.53
2023-03-22T10:01:49.465Z,40.92
2023-03-22T10:02:51.700Z,41.22
2023-03-22T10:03:49.284Z,41.53
2023-03-22T10:04:49.268Z,40.82
2023-03-22T10:05:49.278Z,41.95
2023-03-22T10:06:49.306Z,41.75
2023-03-22T10:07:49.316Z,41.93
2023-03-22T10:08:49.348Z,41.25
2023-03-22T10:09:49.378Z,41.63
2023-03-22T10:10:49.404Z,40.82
2023-03-22T10:11:49.488Z,41.11
2023-03-22T10:12:49.562Z,41.11
2023-03-22T10:13:49.403Z,40.80
2023-03-22T10:14:49.426Z,40.48
2023-03-22T10:15:49.485Z,40.20
2023-03-22T10:16:49.520Z,40.52
2023-03-22T10:17:49.502Z,41.31
2023-03-22T10:18:49.530Z,40.78
2023-03-22T10:19:49.517Z,40.97
2023-03-22T10:20:51.954Z,40.06
2023-03-22T10:21:49.562Z,40.04
2023-03-22T10:22:51.553Z,39.76
2023-03-22T10:23:49.737Z,40.06
2023-03-22T10:24:49.604Z,39.94
2023-03-22T10:25:49.589Z,39.65
2023-03-22T10:26:49.623Z,39.54
2023-03-22T10:27:49.600Z,39.54
2023-03-22T10:28:49.629Z,39.94
2023-03-22T10:29:49.675Z,39.42
2023-03-22T10:30:49.677Z,39.42
2023-03-22T10:31:49.903Z,39.34
2023-03-22T10:32:57.530Z,39.72
2023-03-22T10:33:49.665Z,39.32
2023-03-22T10:34:49.687Z,38.81
2023-03-22T10:35:49.752Z,39.62
2023-03-22T10:36:49.721Z,39.40
2023-03-22T10:37:49.730Z,39.20
2023-03-22T10:38:49.787Z,39.32
2023-03-22T10:39:50.806Z,38.79
2023-03-22T10:40:49.772Z,38.58
2023-03-22T10:41:49.784Z,38.58
2023-03-22T10:42:49.918Z,38.29
2023-03-22T10:43:49.888Z,38.81
2023-03-22T10:44:49.845Z,38.60
2023-03-22T10:45:49.811Z,38.48
2023-03-22T10:46:49.883Z,37.69
2023-03-22T10:47:49.934Z,39.20
2023-03-22T10:48:49.846Z,38.62
2023-03-22T10:49:49.878Z,38.90
2023-03-22T10:50:49.859Z,38.90
2023-03-22T10:51:50.009Z,38.78
2023-03-22T10:52:49.878Z,37.76
2023-03-22T10:53:49.916Z,37.74
2023-03-22T10:54:49.950Z,38.04
2023-03-22T10:55:49.916Z,37.63
2023-03-22T10:56:51.137Z,37.15
2023-03-22T10:57:49.946Z,37.35
2023-03-22T10:58:49.939Z,37.55
2023-03-22T10:59:49.937Z,37.76
2023-03-22T11:00:50.114Z,37.35
2023-03-22T11:01:50.228Z,37.54
2023-03-22T11:02:50.019Z,37.80
2023-03-22T11:03:50.018Z,37.50
2023-03-22T11:04:50.172Z,35.89
2023-03-22T11:05:50.049Z,35.71
2023-03-22T11:06:50.077Z,35.61
2023-03-22T11:07:50.109Z,36.00
2023-03-22T11:08:51.320Z,34.89
2023-03-22T11:09:50.134Z,35.58
2023-03-22T11:10:50.179Z,34.39
2023-03-22T11:11:50.162Z,35.08
2023-03-22T11:12:50.201Z,34.89
2023-03-22T11:13:52.703Z,33.49
2023-03-22T11:14:50.345Z,34.22
2023-03-22T11:15:50.301Z,34.59
2023-03-22T11:16:50.376Z,34.08
2023-03-22T11:17:50.284Z,33.46
2023-03-22T11:18:50.305Z,33.46
2023-03-22T11:19:50.497Z,33.26
2023-03-22T11:20:50.348Z,33.44
2023-03-22T11:21:50.402Z,33.44
2023-03-22T11:22:50.470Z,33.44
2023-03-22T11:23:50.565Z,33.54
2023-03-22T11:24:50.373Z,33.23
2023-03-22T11:25:54.419Z,32.96
2023-03-22T11:26:50.694Z,33.62
2023-03-22T11:29:35.137Z,31.99
2023-03-22T11:30:36.173Z,31.40
2023-03-22T11:31:36.283Z,31.98
2023-03-22T11:32:36.229Z,31.75
2023-03-22T11:33:42.269Z,30.52
2023-03-22T11:34:36.254Z,31.30
2023-03-22T11:35:36.530Z,30.79
2023-03-22T11:36:36.305Z,30.46
2023-03-22T11:37:36.302Z,28.86
2023-03-22T11:38:36.282Z,28.73
2023-03-22T11:39:37.706Z,28.93
2023-03-22T11:40:36.325Z,28.90
2023-03-22T11:41:36.329Z,27.41
2023-03-22T11:42:36.357Z,27.34
2023-03-22T11:43:36.523Z,28.09
2023-03-22T11:44:36.421Z,27.48
2023-03-22T11:45:37.403Z,27.10
2023-03-22T11:46:38.184Z,28.77
2023-03-22T11:47:36.486Z,27.87
2023-03-22T11:48:37.167Z,27.44
2023-03-22T11:49:37.003Z,27.53
2023-03-22T11:50:36.947Z,28.21
2023-03-22T11:51:37.356Z,28.09
2023-03-22T11:52:37.780Z,25.81
2023-03-22T11:53:42.732Z,25.61
2023-03-22T11:54:36.573Z,25.71
2023-03-22T11:55:36.577Z,26.80
2023-03-22T11:56:37.823Z,26.59
2023-03-22T11:57:36.704Z,26.08
2023-03-22T11:58:36.789Z,25.67
2023-03-22T11:59:36.851Z,24.77
2023-03-22T12:00:36.678Z,25.70
2023-03-22T12:01:36.707Z,26.08
2023-03-22T12:02:39.219Z,25.57
2023-03-22T12:03:39.121Z,25.68
2023-03-22T12:04:37.517Z,24.90
2023-03-22T12:05:37.008Z,25.16
2023-03-22T12:06:36.892Z,25.55
2023-03-22T12:07:36.797Z,24.86
2023-03-22T12:08:36.860Z,24.37
2023-03-22T12:09:36.818Z,24.34
2023-03-22T12:10:36.871Z,24.23
2023-03-22T12:11:36.899Z,24.45
2023-03-22T12:12:36.820Z,23.76
2023-03-22T12:13:36.856Z,23.44
2023-03-22T12:14:38.165Z,24.04
2023-03-22T12:15:36.918Z,23.02
2023-03-22T12:16:36.809Z,23.20
2023-03-22T12:17:36.831Z,22.31
2023-03-22T12:18:36.913Z,22.41
2023-03-22T12:19:36.764Z,23.11
2023-03-22T12:20:36.781Z,22.52
2023-03-22T12:21:36.747Z,23.10
2023-03-22T12:22:36.762Z,22.31
2023-03-22T12:23:36.734Z,22.34
2023-03-22T12:24:36.719Z,23.32
2023-03-22T12:25:36.719Z,22.62
2023-03-22T12:26:36.703Z,22.50
2023-03-22T12:27:36.912Z,22.38
2023-03-22T12:28:36.694Z,22.20
2023-03-22T12:29:36.662Z,21.70
2023-03-22T12:30:36.654Z,22.19
2023-03-22T12:31:36.709Z,21.39
2023-03-22T12:32:36.701Z,20.90
2023-03-22T12:33:36.601Z,20.81
2023-03-22T12:34:36.631Z,21.22
2023-03-22T12:35:36.623Z,22.31
2023-03-22T12:36:36.575Z,21.80
2023-03-22T12:37:36.560Z,21.61
2023-03-22T12:38:36.575Z,21.80
2023-03-22T12:39:36.540Z,22.80
2023-03-22T12:40:36.509Z,21.99
2023-03-22T12:41:36.488Z,21.77
2023-03-22T12:42:40.511Z,22.66
2023-03-22T12:43:36.434Z,22.77
2023-03-22T12:44:38.822Z,21.37
2023-03-22T12:45:36.376Z,22.16
2023-03-22T12:46:36.391Z,21.48
2023-03-22T12:47:36.354Z,22.06
2023-03-22T12:48:36.379Z,21.47
2023-03-22T12:49:36.201Z,22.84
2023-03-22T12:50:36.367Z,21.56
2023-03-22T12:51:36.129Z,20.86
2023-03-22T12:52:45.458Z,20.36
2023-03-22T12:53:36.060Z,20.35
2023-03-22T12:54:36.006Z,20.34
2023-03-22T12:55:35.994Z,20.74
2023-03-22T12:56:35.918Z,21.74